Pagina principale
METAR-TAF:

METAR-TAF

Aeroporti :

Aeroporto di Brescia-Ghedi

Brescia Ghedi, Italia

latitudine: 45-25N, longitudine: 010-17E, altezza: 102 m

Osservazione

Il bollettino è stato emesso 1 ora e 29 minuti fa, alle 10:55 UTC
Vento 5 kt da ovest
Temperature 9°C
Umidità 76%
Pressione 997 hPa
Visibilità: 4500 m
Poco nuvoloso ad un'altezza di 800 ft
Nubi sparse ad un'altezza di 1500 ft
foschia

METAR: LIPL 131055Z 26005KT 4500 BR FEW008 SCT015 09/05 Q0997 RMK BKN VIS MIN 4500 WIND THR31 27006KT WIND THR13 25005KT GRN

Ora: 13:24 (12:24 UTC)

Previsione

Il bollettino è stato emesso 1 ora e 24 minuti fa, alle 11:00 UTC
Previsione valida dal 13 alle 12 UTC al 13 alle 21 UTC
Vento 3 kt da direzioni variabili
Visibilità: 8000 m
Poco nuvoloso ad un'altezza di 2000 ft
Temporaneamente
dal 13 alle 12 UTC al 13 alle 13 UTC
Visibilità: 5000 m
Nuvoloso ad un'altezza di 2000 ft
foschia

TAF: LIPL 131100Z 1312/1321 VRB03KT 8000 FEW020 TEMPO 1312/1313 5000 BR BKN020

Osservazioni e previsioni meteorologiche di più di 4000 aeroporti (messaggi METAR e TAF).

Le stazioni disponibili sono rappresentate dai dischi gialli e rossi sulla carta.

Puntare il mouse per vedere il nome della stazione.

Clicca sopra per visualizzare le osservazioni e previsioni meteorologiche.

Per cambiare la mappa : fare clic sui pulsanti verdi con una croce nera per ingrandire, il pulsante verde con un trattino per diminuire, o sulla freccia verde per le mappe adiacenti.


METAR-TAF: